Terminal Aerodrome Forecast
Issued by NWS

Home | Current Version | Previous Version | Text Only | Print | Product List | Glossary On
Versions: 1 2 3 4 5 6 7 8 9 10 11 12 13 14 15 16
000
FTUS43 KICT 271120
TAFHUT
TAF
KHUT 271120Z 2712/2812 VRB04KT P6SM SKC
     FM271600 18008KT P6SM SKC
     FM271900 19014KT P6SM SKC
     FM280000 18008KT P6SM SKC=

USA.gov is the U.S. government's official web portal to all federal, state and local government web resources and services.